sensor_id;sensor_type;location;lat;lon;timestamp;P1;durP1;ratioP1;P2;durP2;ratioP2
47335;SDS011;33068;51.990;5.926;2023-05-07T00:01:54;23.95;;;17.35;;
47335;SDS011;33068;51.990;5.926;2023-05-07T00:04:22;23.27;;;18.55;;
47335;SDS011;33068;51.990;5.926;2023-05-07T00:06:49;22.52;;;17.38;;
47335;SDS011;33068;51.990;5.926;2023-05-07T00:09:17;19.65;;;16.50;;
47335;SDS011;33068;51.990;5.926;2023-05-07T00:11:44;19.88;;;17.38;;
47335;SDS011;33068;51.990;5.926;2023-05-07T00:14:11;19.42;;;16.83;;
47335;SDS011;33068;51.990;5.926;2023-05-07T00:16:39;24.17;;;17.70;;
47335;SDS011;33068;51.990;5.926;2023-05-07T00:19:06;24.15;;;18.52;;
47335;SDS011;33068;51.990;5.926;2023-05-07T00:21:33;26.08;;;17.98;;
47335;SDS011;33068;51.990;5.926;2023-05-07T00:24:00;26.73;;;18.52;;
47335;SDS011;33068;51.990;5.926;2023-05-07T00:26:28;25.13;;;17.40;;
47335;SDS011;33068;51.990;5.926;2023-05-07T00:28:55;22.23;;;17.02;;
47335;SDS011;33068;51.990;5.926;2023-05-07T00:31:22;24.45;;;17.00;;
47335;SDS011;33068;51.990;5.926;2023-05-07T00:33:49;20.95;;;15.75;;
47335;SDS011;33068;51.990;5.926;2023-05-07T00:36:16;23.30;;;16.52;;
47335;SDS011;33068;51.990;5.926;2023-05-07T00:38:43;20.70;;;16.95;;
47335;SDS011;33068;51.990;5.926;2023-05-07T00:41:10;23.20;;;17.58;;
47335;SDS011;33068;51.990;5.926;2023-05-07T00:43:39;27.88;;;18.27;;
47335;SDS011;33068;51.990;5.926;2023-05-07T00:46:06;23.70;;;16.48;;
47335;SDS011;33068;51.990;5.926;2023-05-07T00:48:33;20.73;;;16.83;;
47335;SDS011;33068;51.990;5.926;2023-05-07T00:51:00;27.23;;;18.17;;
47335;SDS011;33068;51.990;5.926;2023-05-07T00:53:27;23.35;;;15.95;;
47335;SDS011;33068;51.990;5.926;2023-05-07T00:55:55;23.23;;;17.40;;
47335;SDS011;33068;51.990;5.926;2023-05-07T00:58:23;23.90;;;17.08;;
47335;SDS011;33068;51.990;5.926;2023-05-07T01:00:51;28.05;;;19.00;;
47335;SDS011;33068;51.990;5.926;2023-05-07T01:03:21;26.00;;;18.45;;
47335;SDS011;33068;51.990;5.926;2023-05-07T01:05:49;27.98;;;19.40;;
47335;SDS011;33068;51.990;5.926;2023-05-07T01:08:17;29.02;;;20.13;;
47335;SDS011;33068;51.990;5.926;2023-05-07T01:10:45;32.85;;;21.38;;
47335;SDS011;33068;51.990;5.926;2023-05-07T01:13:13;26.42;;;21.30;;
47335;SDS011;33068;51.990;5.926;2023-05-07T01:15:41;30.02;;;22.30;;
47335;SDS011;33068;51.990;5.926;2023-05-07T01:18:10;33.28;;;23.17;;
47335;SDS011;33068;51.990;5.926;2023-05-07T01:20:38;33.72;;;24.38;;
47335;SDS011;33068;51.990;5.926;2023-05-07T01:23:06;31.60;;;23.13;;
47335;SDS011;33068;51.990;5.926;2023-05-07T01:25:34;33.80;;;23.15;;
47335;SDS011;33068;51.990;5.926;2023-05-07T01:28:01;34.35;;;22.63;;
47335;SDS011;33068;51.990;5.926;2023-05-07T01:30:32;31.80;;;24.73;;
47335;SDS011;33068;51.990;5.926;2023-05-07T01:33:03;32.25;;;24.50;;
47335;SDS011;33068;51.990;5.926;2023-05-07T01:35:36;31.77;;;23.63;;
47335;SDS011;33068;51.990;5.926;2023-05-07T01:38:06;30.90;;;24.45;;
47335;SDS011;33068;51.990;5.926;2023-05-07T01:40:34;34.03;;;26.02;;
47335;SDS011;33068;51.990;5.926;2023-05-07T01:43:02;32.17;;;24.00;;
47335;SDS011;33068;51.990;5.926;2023-05-07T01:45:30;33.30;;;24.17;;
47335;SDS011;33068;51.990;5.926;2023-05-07T01:47:58;32.08;;;24.13;;
47335;SDS011;33068;51.990;5.926;2023-05-07T01:50:26;33.15;;;25.55;;
47335;SDS011;33068;51.990;5.926;2023-05-07T01:52:53;34.83;;;25.77;;
47335;SDS011;33068;51.990;5.926;2023-05-07T01:55:23;37.95;;;25.75;;
47335;SDS011;33068;51.990;5.926;2023-05-07T01:57:50;34.08;;;24.25;;
47335;SDS011;33068;51.990;5.926;2023-05-07T02:00:18;33.10;;;25.98;;
47335;SDS011;33068;51.990;5.926;2023-05-07T02:02:45;32.70;;;26.55;;
47335;SDS011;33068;51.990;5.926;2023-05-07T02:05:25;35.40;;;27.15;;
47335;SDS011;33068;51.990;5.926;2023-05-07T02:07:58;34.92;;;26.77;;
47335;SDS011;33068;51.990;5.926;2023-05-07T02:10:28;34.75;;;27.10;;
47335;SDS011;33068;51.990;5.926;2023-05-07T02:12:55;38.58;;;26.50;;
47335;SDS011;33068;51.990;5.926;2023-05-07T02:15:22;33.35;;;26.83;;
47335;SDS011;33068;51.990;5.926;2023-05-07T02:17:58;42.30;;;27.25;;
47335;SDS011;33068;51.990;5.926;2023-05-07T02:20:26;36.35;;;27.70;;
47335;SDS011;33068;51.990;5.926;2023-05-07T02:22:53;32.75;;;27.05;;
47335;SDS011;33068;51.990;5.926;2023-05-07T02:25:20;36.15;;;27.45;;
47335;SDS011;33068;51.990;5.926;2023-05-07T02:27:49;33.85;;;26.23;;
47335;SDS011;33068;51.990;5.926;2023-05-07T02:30:17;33.35;;;25.88;;
47335;SDS011;33068;51.990;5.926;2023-05-07T02:32:47;34.38;;;25.50;;
47335;SDS011;33068;51.990;5.926;2023-05-07T02:35:14;31.38;;;25.77;;
47335;SDS011;33068;51.990;5.926;2023-05-07T02:37:41;37.22;;;26.75;;
47335;SDS011;33068;51.990;5.926;2023-05-07T02:40:09;36.15;;;25.23;;
47335;SDS011;33068;51.990;5.926;2023-05-07T02:42:37;33.30;;;25.45;;
47335;SDS011;33068;51.990;5.926;2023-05-07T02:45:06;36.60;;;26.70;;
47335;SDS011;33068;51.990;5.926;2023-05-07T02:47:34;33.10;;;25.35;;
47335;SDS011;33068;51.990;5.926;2023-05-07T02:50:03;35.95;;;24.67;;
47335;SDS011;33068;51.990;5.926;2023-05-07T02:52:31;30.83;;;24.45;;
47335;SDS011;33068;51.990;5.926;2023-05-07T02:54:58;30.15;;;24.58;;
47335;SDS011;33068;51.990;5.926;2023-05-07T02:57:25;33.50;;;25.77;;
47335;SDS011;33068;51.990;5.926;2023-05-07T02:59:53;29.08;;;23.75;;
47335;SDS011;33068;51.990;5.926;2023-05-07T03:02:22;32.05;;;24.55;;
47335;SDS011;33068;51.990;5.926;2023-05-07T03:04:50;35.42;;;24.52;;
47335;SDS011;33068;51.990;5.926;2023-05-07T03:07:17;30.73;;;22.42;;
47335;SDS011;33068;51.990;5.926;2023-05-07T03:09:45;34.20;;;24.33;;
47335;SDS011;33068;51.990;5.926;2023-05-07T03:12:12;32.97;;;22.23;;
47335;SDS011;33068;51.990;5.926;2023-05-07T03:14:39;29.40;;;21.77;;
47335;SDS011;33068;51.990;5.926;2023-05-07T03:17:06;26.58;;;22.92;;
47335;SDS011;33068;51.990;5.926;2023-05-07T03:19:34;29.92;;;23.23;;
47335;SDS011;33068;51.990;5.926;2023-05-07T03:22:02;31.65;;;22.23;;
47335;SDS011;33068;51.990;5.926;2023-05-07T03:24:29;32.45;;;23.00;;
47335;SDS011;33068;51.990;5.926;2023-05-07T03:26:59;33.00;;;23.50;;
47335;SDS011;33068;51.990;5.926;2023-05-07T03:29:26;31.55;;;23.38;;
47335;SDS011;33068;51.990;5.926;2023-05-07T03:31:54;30.38;;;22.25;;
47335;SDS011;33068;51.990;5.926;2023-05-07T03:34:21;31.42;;;22.52;;
47335;SDS011;33068;51.990;5.926;2023-05-07T03:36:50;29.02;;;22.17;;
47335;SDS011;33068;51.990;5.926;2023-05-07T03:39:18;38.28;;;24.50;;
47335;SDS011;33068;51.990;5.926;2023-05-07T03:41:45;34.72;;;23.48;;
47335;SDS011;33068;51.990;5.926;2023-05-07T03:44:12;36.67;;;24.35;;
47335;SDS011;33068;51.990;5.926;2023-05-07T03:46:40;40.22;;;25.70;;
47335;SDS011;33068;51.990;5.926;2023-05-07T03:49:09;35.45;;;25.33;;
47335;SDS011;33068;51.990;5.926;2023-05-07T03:51:36;43.60;;;28.13;;
47335;SDS011;33068;51.990;5.926;2023-05-07T03:54:07;36.03;;;27.55;;
47335;SDS011;33068;51.990;5.926;2023-05-07T03:56:35;44.38;;;29.58;;
47335;SDS011;33068;51.990;5.926;2023-05-07T03:59:02;41.97;;;30.55;;
47335;SDS011;33068;51.990;5.926;2023-05-07T04:01:29;45.38;;;30.13;;
47335;SDS011;33068;51.990;5.926;2023-05-07T04:03:56;44.85;;;31.65;;
47335;SDS011;33068;51.990;5.926;2023-05-07T04:06:24;43.70;;;32.15;;
47335;SDS011;33068;51.990;5.926;2023-05-07T04:08:52;47.55;;;32.15;;
47335;SDS011;33068;51.990;5.926;2023-05-07T04:11:20;50.35;;;34.88;;
47335;SDS011;33068;51.990;5.926;2023-05-07T04:13:47;48.05;;;35.25;;
47335;SDS011;33068;51.990;5.926;2023-05-07T04:16:19;53.00;;;36.88;;
47335;SDS011;33068;51.990;5.926;2023-05-07T04:18:46;51.97;;;36.58;;
47335;SDS011;33068;51.990;5.926;2023-05-07T04:21:14;54.25;;;36.30;;
47335;SDS011;33068;51.990;5.926;2023-05-07T04:23:41;51.42;;;36.28;;
47335;SDS011;33068;51.990;5.926;2023-05-07T04:26:10;51.25;;;36.00;;
47335;SDS011;33068;51.990;5.926;2023-05-07T04:28:42;53.47;;;37.58;;
47335;SDS011;33068;51.990;5.926;2023-05-07T04:31:09;55.97;;;37.67;;
47335;SDS011;33068;51.990;5.926;2023-05-07T04:33:37;52.88;;;38.00;;
47335;SDS011;33068;51.990;5.926;2023-05-07T04:36:07;52.08;;;38.65;;
47335;SDS011;33068;51.990;5.926;2023-05-07T04:38:41;48.85;;;36.47;;
47335;SDS011;33068;51.990;5.926;2023-05-07T04:41:09;50.65;;;37.20;;
47335;SDS011;33068;51.990;5.926;2023-05-07T04:43:40;54.47;;;39.00;;
47335;SDS011;33068;51.990;5.926;2023-05-07T04:46:10;53.53;;;39.97;;
47335;SDS011;33068;51.990;5.926;2023-05-07T04:48:38;56.55;;;39.70;;
47335;SDS011;33068;51.990;5.926;2023-05-07T04:51:06;56.97;;;41.83;;
47335;SDS011;33068;51.990;5.926;2023-05-07T04:53:33;53.15;;;39.15;;
47335;SDS011;33068;51.990;5.926;2023-05-07T04:56:00;53.03;;;40.83;;
47335;SDS011;33068;51.990;5.926;2023-05-07T04:58:34;56.83;;;41.13;;
47335;SDS011;33068;51.990;5.926;2023-05-07T05:01:02;57.03;;;41.28;;
47335;SDS011;33068;51.990;5.926;2023-05-07T05:03:30;57.42;;;40.95;;
47335;SDS011;33068;51.990;5.926;2023-05-07T05:05:57;61.53;;;41.40;;
47335;SDS011;33068;51.990;5.926;2023-05-07T05:08:29;56.75;;;41.22;;
47335;SDS011;33068;51.990;5.926;2023-05-07T05:10:57;62.70;;;42.47;;
47335;SDS011;33068;51.990;5.926;2023-05-07T05:13:24;59.13;;;39.90;;
47335;SDS011;33068;51.990;5.926;2023-05-07T05:15:51;61.80;;;42.40;;
47335;SDS011;33068;51.990;5.926;2023-05-07T05:18:20;61.90;;;42.83;;
47335;SDS011;33068;51.990;5.926;2023-05-07T05:20:47;58.63;;;40.92;;
47335;SDS011;33068;51.990;5.926;2023-05-07T05:23:16;55.35;;;41.92;;
47335;SDS011;33068;51.990;5.926;2023-05-07T05:25:43;58.55;;;41.00;;
47335;SDS011;33068;51.990;5.926;2023-05-07T05:28:12;54.22;;;40.30;;
47335;SDS011;33068;51.990;5.926;2023-05-07T05:30:39;52.65;;;40.55;;
47335;SDS011;33068;51.990;5.926;2023-05-07T05:33:08;55.17;;;39.33;;
47335;SDS011;33068;51.990;5.926;2023-05-07T05:35:36;57.58;;;39.92;;
47335;SDS011;33068;51.990;5.926;2023-05-07T05:38:08;56.70;;;39.67;;
47335;SDS011;33068;51.990;5.926;2023-05-07T05:40:35;55.90;;;38.80;;
47335;SDS011;33068;51.990;5.926;2023-05-07T05:43:02;56.42;;;38.63;;
47335;SDS011;33068;51.990;5.926;2023-05-07T05:45:30;54.25;;;37.53;;
47335;SDS011;33068;51.990;5.926;2023-05-07T05:47:57;51.15;;;39.70;;
47335;SDS011;33068;51.990;5.926;2023-05-07T05:50:24;53.60;;;38.33;;
47335;SDS011;33068;51.990;5.926;2023-05-07T05:52:54;55.17;;;38.63;;
47335;SDS011;33068;51.990;5.926;2023-05-07T05:55:21;50.67;;;37.92;;
47335;SDS011;33068;51.990;5.926;2023-05-07T05:57:49;53.13;;;38.35;;
47335;SDS011;33068;51.990;5.926;2023-05-07T06:00:18;50.55;;;37.13;;
47335;SDS011;33068;51.990;5.926;2023-05-07T06:02:55;51.92;;;36.70;;
47335;SDS011;33068;51.990;5.926;2023-05-07T06:05:24;54.47;;;35.72;;
47335;SDS011;33068;51.990;5.926;2023-05-07T06:07:54;52.38;;;36.42;;
47335;SDS011;33068;51.990;5.926;2023-05-07T06:10:22;48.90;;;35.25;;
47335;SDS011;33068;51.990;5.926;2023-05-07T06:12:49;44.50;;;33.63;;
47335;SDS011;33068;51.990;5.926;2023-05-07T06:15:16;48.78;;;34.72;;
47335;SDS011;33068;51.990;5.926;2023-05-07T06:18:02;44.60;;;33.88;;
47335;SDS011;33068;51.990;5.926;2023-05-07T06:20:29;47.67;;;35.00;;
47335;SDS011;33068;51.990;5.926;2023-05-07T06:22:59;46.30;;;33.55;;
47335;SDS011;33068;51.990;5.926;2023-05-07T06:25:27;44.30;;;33.33;;
47335;SDS011;33068;51.990;5.926;2023-05-07T06:27:54;47.22;;;34.80;;
47335;SDS011;33068;51.990;5.926;2023-05-07T06:30:23;40.20;;;32.20;;
47335;SDS011;33068;51.990;5.926;2023-05-07T06:32:50;43.53;;;33.58;;
47335;SDS011;33068;51.990;5.926;2023-05-07T06:35:18;40.58;;;31.45;;
47335;SDS011;33068;51.990;5.926;2023-05-07T06:37:45;42.55;;;33.67;;
47335;SDS011;33068;51.990;5.926;2023-05-07T06:40:19;38.95;;;30.73;;
47335;SDS011;33068;51.990;5.926;2023-05-07T06:42:47;41.38;;;31.73;;
47335;SDS011;33068;51.990;5.926;2023-05-07T06:45:27;42.88;;;32.88;;
47335;SDS011;33068;51.990;5.926;2023-05-07T06:47:55;41.47;;;32.50;;
47335;SDS011;33068;51.990;5.926;2023-05-07T06:50:23;42.45;;;32.65;;
47335;SDS011;33068;51.990;5.926;2023-05-07T06:52:54;35.92;;;30.38;;
47335;SDS011;33068;51.990;5.926;2023-05-07T06:55:23;41.70;;;33.05;;
47335;SDS011;33068;51.990;5.926;2023-05-07T06:57:50;39.67;;;30.98;;
47335;SDS011;33068;51.990;5.926;2023-05-07T07:00:19;40.05;;;31.55;;
47335;SDS011;33068;51.990;5.926;2023-05-07T07:02:52;41.88;;;31.25;;
47335;SDS011;33068;51.990;5.926;2023-05-07T07:05:22;42.22;;;30.35;;
47335;SDS011;33068;51.990;5.926;2023-05-07T07:07:49;42.22;;;31.52;;
47335;SDS011;33068;51.990;5.926;2023-05-07T07:10:18;43.35;;;32.53;;
47335;SDS011;33068;51.990;5.926;2023-05-07T07:12:47;36.47;;;28.98;;
47335;SDS011;33068;51.990;5.926;2023-05-07T07:15:15;40.97;;;30.00;;
47335;SDS011;33068;51.990;5.926;2023-05-07T07:17:42;47.88;;;31.48;;
47335;SDS011;33068;51.990;5.926;2023-05-07T07:20:10;37.95;;;29.45;;
47335;SDS011;33068;51.990;5.926;2023-05-07T07:22:37;36.60;;;27.67;;
47335;SDS011;33068;51.990;5.926;2023-05-07T07:25:05;37.00;;;28.05;;
47335;SDS011;33068;51.990;5.926;2023-05-07T07:27:33;37.10;;;28.17;;
47335;SDS011;33068;51.990;5.926;2023-05-07T07:30:01;41.30;;;29.85;;
47335;SDS011;33068;51.990;5.926;2023-05-07T07:32:31;36.45;;;27.27;;
47335;SDS011;33068;51.990;5.926;2023-05-07T07:34:59;41.20;;;28.77;;
47335;SDS011;33068;51.990;5.926;2023-05-07T07:37:27;39.17;;;26.55;;
47335;SDS011;33068;51.990;5.926;2023-05-07T07:39:55;37.50;;;28.23;;
47335;SDS011;33068;51.990;5.926;2023-05-07T07:42:23;37.83;;;27.35;;
47335;SDS011;33068;51.990;5.926;2023-05-07T07:44:50;40.10;;;28.17;;
47335;SDS011;33068;51.990;5.926;2023-05-07T07:47:22;36.78;;;25.63;;
47335;SDS011;33068;51.990;5.926;2023-05-07T07:49:50;32.42;;;25.85;;
47335;SDS011;33068;51.990;5.926;2023-05-07T07:52:18;31.92;;;27.60;;
47335;SDS011;33068;51.990;5.926;2023-05-07T07:54:45;35.13;;;25.50;;
47335;SDS011;33068;51.990;5.926;2023-05-07T07:57:12;33.28;;;24.73;;
47335;SDS011;33068;51.990;5.926;2023-05-07T07:59:40;36.88;;;25.67;;
47335;SDS011;33068;51.990;5.926;2023-05-07T08:02:10;35.60;;;25.70;;
47335;SDS011;33068;51.990;5.926;2023-05-07T08:04:38;35.63;;;25.38;;
47335;SDS011;33068;51.990;5.926;2023-05-07T08:07:07;34.58;;;25.75;;
47335;SDS011;33068;51.990;5.926;2023-05-07T08:09:37;32.88;;;25.05;;
47335;SDS011;33068;51.990;5.926;2023-05-07T08:12:05;33.10;;;24.00;;
47335;SDS011;33068;51.990;5.926;2023-05-07T08:14:33;33.67;;;24.85;;
47335;SDS011;33068;51.990;5.926;2023-05-07T08:17:02;37.60;;;25.52;;
47335;SDS011;33068;51.990;5.926;2023-05-07T08:19:30;32.67;;;24.42;;
47335;SDS011;33068;51.990;5.926;2023-05-07T08:21:58;31.52;;;23.10;;
47335;SDS011;33068;51.990;5.926;2023-05-07T08:24:26;37.40;;;23.55;;
47335;SDS011;33068;51.990;5.926;2023-05-07T08:26:53;34.17;;;23.73;;
47335;SDS011;33068;51.990;5.926;2023-05-07T08:29:20;33.70;;;23.83;;
47335;SDS011;33068;51.990;5.926;2023-05-07T08:31:47;33.25;;;23.90;;
47335;SDS011;33068;51.990;5.926;2023-05-07T08:34:14;34.90;;;24.08;;
47335;SDS011;33068;51.990;5.926;2023-05-07T08:36:44;35.00;;;24.67;;
47335;SDS011;33068;51.990;5.926;2023-05-07T08:39:17;34.05;;;24.52;;
47335;SDS011;33068;51.990;5.926;2023-05-07T08:41:46;33.67;;;22.10;;
47335;SDS011;33068;51.990;5.926;2023-05-07T08:44:17;29.15;;;23.30;;
47335;SDS011;33068;51.990;5.926;2023-05-07T08:46:49;33.38;;;22.27;;
47335;SDS011;33068;51.990;5.926;2023-05-07T08:49:20;29.88;;;22.35;;
47335;SDS011;33068;51.990;5.926;2023-05-07T08:51:48;28.80;;;21.38;;
47335;SDS011;33068;51.990;5.926;2023-05-07T08:54:21;32.83;;;22.13;;
47335;SDS011;33068;51.990;5.926;2023-05-07T08:56:48;27.13;;;21.88;;
47335;SDS011;33068;51.990;5.926;2023-05-07T08:59:16;30.42;;;20.52;;
47335;SDS011;33068;51.990;5.926;2023-05-07T09:01:44;28.83;;;19.70;;
47335;SDS011;33068;51.990;5.926;2023-05-07T09:04:11;26.75;;;20.38;;
47335;SDS011;33068;51.990;5.926;2023-05-07T09:06:39;26.58;;;19.60;;
47335;SDS011;33068;51.990;5.926;2023-05-07T09:09:09;23.90;;;18.30;;
47335;SDS011;33068;51.990;5.926;2023-05-07T09:11:42;27.27;;;20.00;;
47335;SDS011;33068;51.990;5.926;2023-05-07T09:14:11;27.15;;;18.23;;
47335;SDS011;33068;51.990;5.926;2023-05-07T09:16:41;26.00;;;19.27;;
47335;SDS011;33068;51.990;5.926;2023-05-07T09:19:08;25.88;;;19.13;;
47335;SDS011;33068;51.990;5.926;2023-05-07T09:21:36;29.85;;;21.15;;
47335;SDS011;33068;51.990;5.926;2023-05-07T09:24:07;25.75;;;20.38;;
47335;SDS011;33068;51.990;5.926;2023-05-07T09:26:38;25.27;;;17.95;;
47335;SDS011;33068;51.990;5.926;2023-05-07T09:29:09;27.05;;;18.67;;
47335;SDS011;33068;51.990;5.926;2023-05-07T09:31:37;22.98;;;17.85;;
47335;SDS011;33068;51.990;5.926;2023-05-07T09:34:08;28.88;;;18.00;;
47335;SDS011;33068;51.990;5.926;2023-05-07T09:36:37;25.38;;;17.55;;
47335;SDS011;33068;51.990;5.926;2023-05-07T09:39:05;25.92;;;18.23;;
47335;SDS011;33068;51.990;5.926;2023-05-07T09:41:32;18.98;;;15.45;;
47335;SDS011;33068;51.990;5.926;2023-05-07T09:44:15;22.27;;;15.70;;
47335;SDS011;33068;51.990;5.926;2023-05-07T09:46:46;19.67;;;15.40;;
47335;SDS011;33068;51.990;5.926;2023-05-07T09:51:56;22.02;;;15.98;;
47335;SDS011;33068;51.990;5.926;2023-05-07T09:54:26;20.30;;;15.80;;
47335;SDS011;33068;51.990;5.926;2023-05-07T09:56:55;19.58;;;14.88;;
47335;SDS011;33068;51.990;5.926;2023-05-07T09:59:28;22.83;;;14.05;;
47335;SDS011;33068;51.990;5.926;2023-05-07T10:01:59;18.45;;;14.07;;
47335;SDS011;33068;51.990;5.926;2023-05-07T10:04:28;20.02;;;14.68;;
47335;SDS011;33068;51.990;5.926;2023-05-07T10:06:55;16.77;;;13.50;;
47335;SDS011;33068;51.990;5.926;2023-05-07T10:09:25;21.23;;;14.07;;
47335;SDS011;33068;51.990;5.926;2023-05-07T10:11:53;20.40;;;14.32;;
47335;SDS011;33068;51.990;5.926;2023-05-07T10:14:21;20.63;;;13.60;;
47335;SDS011;33068;51.990;5.926;2023-05-07T10:16:50;19.30;;;14.63;;
47335;SDS011;33068;51.990;5.926;2023-05-07T10:19:20;21.05;;;15.27;;
47335;SDS011;33068;51.990;5.926;2023-05-07T10:21:54;19.05;;;13.38;;
47335;SDS011;33068;51.990;5.926;2023-05-07T10:24:28;20.48;;;14.75;;
47335;SDS011;33068;51.990;5.926;2023-05-07T10:27:00;19.15;;;13.43;;
47335;SDS011;33068;51.990;5.926;2023-05-07T10:29:33;18.33;;;13.48;;
47335;SDS011;33068;51.990;5.926;2023-05-07T10:32:26;16.55;;;13.05;;
47335;SDS011;33068;51.990;5.926;2023-05-07T10:35:03;15.65;;;12.05;;
47335;SDS011;33068;51.990;5.926;2023-05-07T10:37:33;15.55;;;11.80;;
47335;SDS011;33068;51.990;5.926;2023-05-07T10:40:01;15.70;;;12.27;;
47335;SDS011;33068;51.990;5.926;2023-05-07T10:42:30;15.25;;;12.52;;
47335;SDS011;33068;51.990;5.926;2023-05-07T10:44:57;17.85;;;11.00;;
47335;SDS011;33068;51.990;5.926;2023-05-07T10:50:33;14.13;;;11.77;;
47335;SDS011;33068;51.990;5.926;2023-05-07T10:56:24;13.13;;;10.60;;
47335;SDS011;33068;51.990;5.926;2023-05-07T11:02:14;12.95;;;11.07;;
47335;SDS011;33068;51.990;5.926;2023-05-07T11:07:55;13.68;;;10.93;;
47335;SDS011;33068;51.990;5.926;2023-05-07T11:10:47;15.23;;;11.05;;
47335;SDS011;33068;51.990;5.926;2023-05-07T11:13:41;11.95;;;9.43;;
47335;SDS011;33068;51.990;5.926;2023-05-07T11:16:38;15.48;;;10.05;;
47335;SDS011;33068;51.990;5.926;2023-05-07T11:25:27;11.88;;;10.20;;
47335;SDS011;33068;51.990;5.926;2023-05-07T11:28:06;13.95;;;10.32;;
47335;SDS011;33068;51.990;5.926;2023-05-07T11:30:37;10.95;;;9.35;;
47335;SDS011;33068;51.990;5.926;2023-05-07T11:33:08;11.68;;;10.48;;
47335;SDS011;33068;51.990;5.926;2023-05-07T11:35:38;16.05;;;10.75;;
47335;SDS011;33068;51.990;5.926;2023-05-07T11:38:08;12.27;;;9.88;;
47335;SDS011;33068;51.990;5.926;2023-05-07T11:40:36;12.68;;;10.00;;
47335;SDS011;33068;51.990;5.926;2023-05-07T11:43:15;12.75;;;9.52;;
47335;SDS011;33068;51.990;5.926;2023-05-07T11:45:43;12.45;;;10.18;;
47335;SDS011;33068;51.990;5.926;2023-05-07T11:48:12;13.90;;;10.63;;
47335;SDS011;33068;51.990;5.926;2023-05-07T11:50:49;13.25;;;10.82;;
47335;SDS011;33068;51.990;5.926;2023-05-07T11:53:17;12.30;;;10.65;;
47335;SDS011;33068;51.990;5.926;2023-05-07T11:55:46;13.57;;;10.40;;
47335;SDS011;33068;51.990;5.926;2023-05-07T11:58:18;12.90;;;8.77;;
47335;SDS011;33068;51.990;5.926;2023-05-07T12:00:48;12.18;;;9.32;;
47335;SDS011;33068;51.990;5.926;2023-05-07T12:03:16;11.80;;;9.13;;
47335;SDS011;33068;51.990;5.926;2023-05-07T12:05:44;10.73;;;9.00;;
47335;SDS011;33068;51.990;5.926;2023-05-07T12:08:13;12.73;;;10.05;;
47335;SDS011;33068;51.990;5.926;2023-05-07T12:10:41;13.85;;;9.05;;
47335;SDS011;33068;51.990;5.926;2023-05-07T12:13:15;9.75;;;8.52;;
47335;SDS011;33068;51.990;5.926;2023-05-07T12:15:42;11.90;;;9.00;;
47335;SDS011;33068;51.990;5.926;2023-05-07T12:18:10;10.18;;;8.68;;
47335;SDS011;33068;51.990;5.926;2023-05-07T12:20:38;14.40;;;9.15;;
47335;SDS011;33068;51.990;5.926;2023-05-07T12:23:05;12.65;;;9.52;;
47335;SDS011;33068;51.990;5.926;2023-05-07T12:25:34;11.50;;;9.52;;
47335;SDS011;33068;51.990;5.926;2023-05-07T12:28:01;14.32;;;8.73;;
47335;SDS011;33068;51.990;5.926;2023-05-07T12:30:31;9.98;;;8.35;;
47335;SDS011;33068;51.990;5.926;2023-05-07T12:32:59;9.75;;;8.05;;
47335;SDS011;33068;51.990;5.926;2023-05-07T12:35:26;11.80;;;8.70;;
47335;SDS011;33068;51.990;5.926;2023-05-07T12:37:57;10.25;;;8.15;;
47335;SDS011;33068;51.990;5.926;2023-05-07T12:40:34;10.60;;;7.60;;
47335;SDS011;33068;51.990;5.926;2023-05-07T12:43:02;11.60;;;8.45;;
47335;SDS011;33068;51.990;5.926;2023-05-07T12:45:30;11.35;;;8.07;;
47335;SDS011;33068;51.990;5.926;2023-05-07T12:48:01;13.95;;;7.78;;
47335;SDS011;33068;51.990;5.926;2023-05-07T12:50:30;11.30;;;8.95;;
47335;SDS011;33068;51.990;5.926;2023-05-07T12:52:58;10.95;;;8.82;;
47335;SDS011;33068;51.990;5.926;2023-05-07T12:55:25;10.77;;;8.20;;
47335;SDS011;33068;51.990;5.926;2023-05-07T12:57:52;13.48;;;8.82;;
47335;SDS011;33068;51.990;5.926;2023-05-07T13:00:33;10.43;;;7.85;;
47335;SDS011;33068;51.990;5.926;2023-05-07T13:03:02;10.98;;;9.13;;
47335;SDS011;33068;51.990;5.926;2023-05-07T13:05:29;10.93;;;9.00;;
47335;SDS011;33068;51.990;5.926;2023-05-07T13:07:56;14.10;;;8.63;;
47335;SDS011;33068;51.990;5.926;2023-05-07T13:10:24;13.20;;;9.25;;
47335;SDS011;33068;51.990;5.926;2023-05-07T13:12:51;11.60;;;8.73;;
47335;SDS011;33068;51.990;5.926;2023-05-07T13:15:19;15.02;;;9.40;;
47335;SDS011;33068;51.990;5.926;2023-05-07T13:17:49;10.38;;;8.07;;
47335;SDS011;33068;51.990;5.926;2023-05-07T13:20:16;9.27;;;8.27;;
47335;SDS011;33068;51.990;5.926;2023-05-07T13:22:43;11.60;;;8.20;;
47335;SDS011;33068;51.990;5.926;2023-05-07T13:25:10;10.43;;;8.02;;
47335;SDS011;33068;51.990;5.926;2023-05-07T13:27:37;10.13;;;8.40;;
47335;SDS011;33068;51.990;5.926;2023-05-07T13:30:05;9.32;;;8.27;;
47335;SDS011;33068;51.990;5.926;2023-05-07T13:32:33;13.02;;;9.05;;
47335;SDS011;33068;51.990;5.926;2023-05-07T13:35:02;10.98;;;8.15;;
47335;SDS011;33068;51.990;5.926;2023-05-07T13:37:29;10.50;;;8.10;;
47335;SDS011;33068;51.990;5.926;2023-05-07T13:39:56;11.25;;;7.90;;
47335;SDS011;33068;51.990;5.926;2023-05-07T13:42:23;12.27;;;8.18;;
47335;SDS011;33068;51.990;5.926;2023-05-07T13:44:51;8.52;;;7.65;;
47335;SDS011;33068;51.990;5.926;2023-05-07T13:47:18;12.88;;;8.45;;
47335;SDS011;33068;51.990;5.926;2023-05-07T13:49:45;8.93;;;7.50;;
47335;SDS011;33068;51.990;5.926;2023-05-07T13:52:16;10.70;;;7.65;;
47335;SDS011;33068;51.990;5.926;2023-05-07T13:54:43;10.68;;;8.02;;
47335;SDS011;33068;51.990;5.926;2023-05-07T13:57:10;9.68;;;6.85;;
47335;SDS011;33068;51.990;5.926;2023-05-07T13:59:37;8.75;;;6.57;;
47335;SDS011;33068;51.990;5.926;2023-05-07T14:02:05;10.38;;;6.45;;
47335;SDS011;33068;51.990;5.926;2023-05-07T14:04:33;7.07;;;5.88;;
47335;SDS011;33068;51.990;5.926;2023-05-07T14:07:00;6.72;;;5.03;;
47335;SDS011;33068;51.990;5.926;2023-05-07T14:09:28;9.38;;;6.15;;
47335;SDS011;33068;51.990;5.926;2023-05-07T14:11:55;13.85;;;5.50;;
47335;SDS011;33068;51.990;5.926;2023-05-07T14:14:22;6.25;;;4.82;;
47335;SDS011;33068;51.990;5.926;2023-05-07T14:16:49;8.02;;;5.28;;
47335;SDS011;33068;51.990;5.926;2023-05-07T14:19:16;8.80;;;7.03;;
47335;SDS011;33068;51.990;5.926;2023-05-07T14:21:44;10.45;;;7.28;;
47335;SDS011;33068;51.990;5.926;2023-05-07T14:24:11;13.30;;;7.63;;
47335;SDS011;33068;51.990;5.926;2023-05-07T14:26:39;9.80;;;6.93;;
47335;SDS011;33068;51.990;5.926;2023-05-07T14:29:06;9.32;;;7.10;;
47335;SDS011;33068;51.990;5.926;2023-05-07T14:31:33;12.63;;;7.80;;
47335;SDS011;33068;51.990;5.926;2023-05-07T14:34:00;11.68;;;8.00;;
47335;SDS011;33068;51.990;5.926;2023-05-07T14:36:27;10.02;;;7.65;;
47335;SDS011;33068;51.990;5.926;2023-05-07T14:38:56;13.82;;;8.10;;
47335;SDS011;33068;51.990;5.926;2023-05-07T14:41:24;10.10;;;8.40;;
47335;SDS011;33068;51.990;5.926;2023-05-07T14:43:53;12.65;;;7.55;;
47335;SDS011;33068;51.990;5.926;2023-05-07T14:46:20;9.30;;;7.20;;
47335;SDS011;33068;51.990;5.926;2023-05-07T14:48:49;11.30;;;7.35;;
47335;SDS011;33068;51.990;5.926;2023-05-07T14:51:16;12.38;;;6.35;;
47335;SDS011;33068;51.990;5.926;2023-05-07T14:53:44;6.65;;;4.85;;
47335;SDS011;33068;51.990;5.926;2023-05-07T14:56:11;5.78;;;4.20;;
47335;SDS011;33068;51.990;5.926;2023-05-07T14:58:38;4.32;;;3.20;;